Time;durP1;ratioP1;P1;durP2;ratioP2;P2;SDS_P1;SDS_P2;PMS_P1;PMS_P2;Temp;Humidity;BMP_temperature;BMP_pressure;BME280_temperature;BME280_humidity;BME280_pressure;Samples;Min_cycle;Max_cycle;Signal;HPM_P1;HPM_P2
2024/01/28 00:00:36;;;;;;;15.23;5.25;;;;;;;10.12;100.00;100749.78;5081955;28;20422;-80
2024/01/28 00:03:02;;;;;;;16.25;4.72;;;;;;;10.08;100.00;100738.56;5098821;28;20038;-80
2024/01/28 00:05:28;;;;;;;13.05;4.82;;;;;;;10.02;100.00;100731.16;5081852;28;20028;-80
2024/01/28 00:07:54;;;;;;;16.92;6.05;;;;;;;9.93;100.00;100734.06;5098743;28;20031;-80
2024/01/28 00:10:20;;;;;;;12.88;5.00;;;;;;;9.90;100.00;100740.63;5115585;28;20475;-80
2024/01/28 00:12:45;;;;;;;17.88;6.00;;;;;;;9.82;100.00;100737.97;5082213;28;20067;-80
2024/01/28 00:15:11;;;;;;;13.00;5.15;;;;;;;9.73;100.00;100738.97;5098877;28;20023;-81
2024/01/28 00:17:37;;;;;;;13.10;5.70;;;;;;;9.68;100.00;100737.66;5081499;28;20081;-80
2024/01/28 00:20:05;;;;;;;16.60;5.03;;;;;;;9.65;100.00;100723.72;5098623;28;20130;-81
2024/01/28 00:22:31;;;;;;;15.93;5.90;;;;;;;9.58;100.00;100730.75;5082023;28;20031;-80
2024/01/28 00:24:57;;;;;;;14.80;5.80;;;;;;;9.53;100.00;100717.88;5098623;28;20031;-80
2024/01/28 00:27:23;;;;;;;18.02;6.18;;;;;;;9.41;100.00;100713.84;5115547;28;20359;-80
2024/01/28 00:29:48;;;;;;;13.55;5.05;;;;;;;9.44;100.00;100713.50;5099246;28;20031;-80
2024/01/28 00:32:14;;;;;;;15.35;6.05;;;;;;;9.39;100.00;100718.53;5098157;28;20035;-80
2024/01/28 00:34:41;;;;;;;19.50;6.55;;;;;;;9.38;100.00;100714.19;5081771;28;20047;-80
2024/01/28 00:37:06;;;;;;;18.80;6.50;;;;;;;9.33;100.00;100706.66;5081492;28;20181;-80
2024/01/28 00:39:32;;;;;;;12.50;6.57;;;;;;;9.42;100.00;100710.16;5081411;28;20118;-80
2024/01/28 00:41:58;;;;;;;16.50;6.20;;;;;;;9.39;100.00;100706.00;5098268;28;20383;-80
2024/01/28 00:44:24;;;;;;;19.90;6.03;;;;;;;9.44;100.00;100714.34;5098153;28;20031;-81
2024/01/28 00:46:50;;;;;;;11.75;6.43;;;;;;;9.44;100.00;100702.78;5098488;28;20031;-80
2024/01/28 00:49:15;;;;;;;17.27;7.35;;;;;;;9.48;100.00;100719.41;5097819;28;20463;-80
2024/01/28 00:51:41;;;;;;;18.55;7.05;;;;;;;9.51;100.00;100719.06;5097404;28;20024;-80
2024/01/28 00:54:07;;;;;;;23.55;7.47;;;;;;;9.63;100.00;100729.28;5081333;28;20118;-80
2024/01/28 00:56:33;;;;;;;18.23;6.90;;;;;;;9.73;100.00;100726.38;5081056;28;20042;-80
2024/01/28 00:58:59;;;;;;;20.45;6.25;;;;;;;9.80;100.00;100729.22;5097979;28;20027;-80
2024/01/28 01:01:25;;;;;;;16.65;7.18;;;;;;;9.86;100.00;100718.63;5097610;28;20364;-80
2024/01/28 01:03:50;;;;;;;24.55;6.90;;;;;;;9.89;100.00;100717.44;5080800;28;20054;-80
2024/01/28 01:06:16;;;;;;;17.90;6.10;;;;;;;9.90;100.00;100717.28;5080840;28;20147;-80
2024/01/28 01:08:41;;;;;;;16.80;7.47;;;;;;;9.91;100.00;100718.13;5114915;28;20063;-80
2024/01/28 01:11:07;;;;;;;20.25;7.18;;;;;;;9.90;100.00;100711.09;5097499;28;20526;-80
2024/01/28 01:13:34;;;;;;;20.38;9.50;;;;;;;9.97;100.00;100709.34;5097962;28;20536;-80
2024/01/28 01:16:00;;;;;;;19.55;8.00;;;;;;;9.95;100.00;100715.91;5081009;28;20123;-80
2024/01/28 01:18:25;;;;;;;24.58;11.02;;;;;;;9.95;100.00;100710.53;5097222;28;20039;-80
2024/01/28 01:20:52;;;;;;;20.38;7.85;;;;;;;9.97;100.00;100713.91;5080676;28;20040;-80
2024/01/28 01:23:18;;;;;;;26.50;9.18;;;;;;;9.99;100.00;100704.66;5113919;28;20073;-80
2024/01/28 01:25:43;;;;;;;23.40;9.30;;;;;;;9.98;100.00;100700.31;5080675;28;20036;-80
2024/01/28 01:28:10;;;;;;;16.55;7.03;;;;;;;9.98;100.00;100694.94;5080560;28;20027;-80
2024/01/28 01:30:35;;;;;;;17.75;7.93;;;;;;;9.98;100.00;100686.88;5113964;28;20051;-80
2024/01/28 01:33:01;;;;;;;18.48;7.03;;;;;;;9.97;100.00;100695.09;5080691;28;20122;-80
2024/01/28 01:35:27;;;;;;;21.98;10.18;;;;;;;10.00;100.00;100682.19;5097138;28;20039;-80
2024/01/28 01:37:56;;;;;;;19.73;7.35;;;;;;;10.03;100.00;100676.44;5097064;28;20028;-80
2024/01/28 01:40:22;;;;;;;16.80;5.45;;;;;;;10.02;100.00;100682.00;5097631;28;20471;-80
2024/01/28 01:42:48;;;;;;;14.07;6.32;;;;;;;10.02;100.00;100664.00;5113887;28;20122;-80
2024/01/28 01:45:13;;;;;;;16.80;5.90;;;;;;;10.04;100.00;100671.91;5080293;28;20027;-80
2024/01/28 01:47:39;;;;;;;15.48;5.60;;;;;;;10.06;100.00;100662.66;5114060;28;20032;-80
2024/01/28 01:50:10;;;;;;;14.57;6.57;;;;;;;10.04;100.00;100662.00;5080238;28;20042;-80
2024/01/28 01:52:40;;;;;;;23.52;6.88;;;;;;;10.07;100.00;100650.06;5113816;28;20039;-80
2024/01/28 01:55:07;;;;;;;14.82;5.75;;;;;;;10.07;100.00;100647.38;5113449;28;20414;-80
2024/01/28 01:57:32;;;;;;;16.00;6.45;;;;;;;10.08;100.00;100640.97;5097012;28;20126;-80
2024/01/28 01:59:58;;;;;;;20.25;6.88;;;;;;;10.07;100.00;100624.03;5096798;28;20110;-80
2024/01/28 02:02:24;;;;;;;24.55;5.70;;;;;;;10.12;100.00;100627.03;5096496;28;20020;-81
2024/01/28 02:04:50;;;;;;;17.13;5.90;;;;;;;10.10;100.00;100618.31;5113651;28;20024;-80
2024/01/28 02:07:17;;;;;;;21.58;5.28;;;;;;;10.14;100.00;100610.75;5096574;28;20062;-80
2024/01/28 02:09:42;;;;;;;16.98;6.07;;;;;;;10.17;100.00;100598.81;5079368;28;20391;-80
2024/01/28 02:12:08;;;;;;;19.48;5.60;;;;;;;10.19;100.00;100605.69;5079667;28;20385;-80
2024/01/28 02:14:34;;;;;;;27.08;7.35;;;;;;;10.18;100.00;100597.78;5079916;28;20054;-80
2024/01/28 02:17:00;;;;;;;21.17;8.25;;;;;;;10.25;100.00;100588.00;5079628;28;20039;-80
2024/01/28 02:19:27;;;;;;;22.67;7.78;;;;;;;10.36;100.00;100587.63;5079642;28;20408;-81
2024/01/28 02:21:53;;;;;;;19.20;6.13;;;;;;;10.34;100.00;100577.03;5096551;28;20038;-80
2024/01/28 02:24:19;;;;;;;20.50;7.82;;;;;;;10.32;100.00;100571.03;5113369;28;20558;-80
2024/01/28 02:26:45;;;;;;;29.70;9.50;;;;;;;10.32;100.00;100576.41;5079749;28;20031;-81
2024/01/28 02:29:11;;;;;;;16.27;6.30;;;;;;;10.34;100.00;100571.66;5096319;28;20387;-80
2024/01/28 02:31:36;;;;;;;29.15;8.63;;;;;;;10.38;100.00;100571.34;5079369;28;20072;-80
2024/01/28 02:34:02;;;;;;;24.42;10.65;;;;;;;10.34;100.00;100562.78;5096504;28;20367;-80
2024/01/28 02:36:29;;;;;;;20.98;8.05;;;;;;;10.34;100.00;100566.28;5112777;28;20407;-80
2024/01/28 02:38:55;;;;;;;18.27;5.95;;;;;;;10.36;100.00;100566.13;5079418;28;20042;-80
2024/01/28 02:41:21;;;;;;;17.35;6.40;;;;;;;10.38;100.00;100572.16;5095684;28;20102;-80
2024/01/28 02:43:46;;;;;;;19.92;5.07;;;;;;;10.38;100.00;100565.97;5113000;28;20405;-80
2024/01/28 02:46:14;;;;;;;20.85;5.93;;;;;;;10.37;100.00;100569.63;5096088;28;20099;-80
2024/01/28 02:48:41;;;;;;;14.05;5.03;;;;;;;10.31;100.00;100561.28;5080071;28;20114;-80
2024/01/28 02:51:07;;;;;;;17.33;5.00;;;;;;;10.34;100.00;100554.72;5096083;28;20040;-80
2024/01/28 02:53:33;;;;;;;17.98;6.47;;;;;;;10.36;100.00;100562.59;5112902;28;20035;-80
2024/01/28 02:56:00;;;;;;;16.88;6.53;;;;;;;10.37;100.00;100557.03;5078938;28;20054;-80
2024/01/28 02:58:27;;;;;;;17.80;6.07;;;;;;;10.36;100.00;100554.53;5079450;28;20379;-81
2024/01/28 03:00:52;;;;;;;16.00;5.50;;;;;;;10.31;100.00;100555.91;5095906;28;20085;-80
2024/01/28 03:03:20;;;;;;;18.67;5.53;;;;;;;10.29;100.00;100551.72;5079599;28;20024;-81
2024/01/28 03:05:46;;;;;;;19.00;6.32;;;;;;;10.29;100.00;100544.53;5079285;28;20533;-80
2024/01/28 03:08:14;;;;;;;22.08;6.55;;;;;;;10.33;100.00;100539.59;5112672;28;20028;-80
2024/01/28 03:10:40;;;;;;;20.98;7.85;;;;;;;10.31;100.00;100536.25;5079344;28;20475;-80
2024/01/28 03:13:06;;;;;;;16.13;6.85;;;;;;;10.28;100.00;100521.31;5079147;28;20054;-80
2024/01/28 03:15:32;;;;;;;29.25;7.97;;;;;;;10.27;100.00;100522.34;5095537;28;20036;-80
2024/01/28 03:17:58;;;;;;;19.95;6.30;;;;;;;10.26;100.00;100528.69;5112310;28;20043;-81
2024/01/28 03:20:27;;;;;;;17.67;6.50;;;;;;;10.31;100.00;100506.69;5080792;28;20019;-80
2024/01/28 03:22:53;;;;;;;20.83;6.80;;;;;;;10.34;100.00;100506.34;5100355;28;20487;-80
2024/01/28 03:25:19;;;;;;;18.80;6.13;;;;;;;10.32;100.00;100505.69;5099721;28;20028;-80
2024/01/28 03:27:44;;;;;;;18.48;5.97;;;;;;;10.31;100.00;100494.09;5116534;28;20536;-80
2024/01/28 03:30:10;;;;;;;19.23;6.72;;;;;;;10.29;100.00;100492.59;5082746;28;20130;-81
2024/01/28 03:32:36;;;;;;;18.45;7.43;;;;;;;10.31;100.00;100496.78;5099626;28;20151;-80
2024/01/28 03:35:03;;;;;;;23.95;6.95;;;;;;;10.32;100.00;100486.88;5116537;28;20139;-80
2024/01/28 03:37:28;;;;;;;15.23;5.70;;;;;;;10.32;100.00;100468.06;5082449;28;20127;-80
2024/01/28 03:39:54;;;;;;;22.73;7.20;;;;;;;10.29;100.00;100473.78;5082821;28;20119;-80
2024/01/28 03:42:21;;;;;;;19.95;5.43;;;;;;;10.34;100.00;100466.84;5116191;28;20023;-80
2024/01/28 03:44:47;;;;;;;17.67;6.50;;;;;;;10.36;100.00;100476.59;5116293;28;20049;-80
2024/01/28 03:47:13;;;;;;;14.38;5.13;;;;;;;10.34;100.00;100460.66;5117220;28;20239;-80
2024/01/28 03:49:38;;;;;;;14.82;5.82;;;;;;;10.32;100.00;100466.22;5082534;28;20092;-80
2024/01/28 03:52:04;;;;;;;19.67;6.20;;;;;;;10.30;100.00;100462.03;5116556;28;20024;-80
2024/01/28 03:54:30;;;;;;;17.13;6.30;;;;;;;10.28;100.00;100478.34;5099032;28;20484;-80
2024/01/28 03:56:56;;;;;;;16.05;6.53;;;;;;;10.27;100.00;100457.00;5098637;28;20027;-80
2024/01/28 03:59:21;;;;;;;17.05;6.05;;;;;;;10.26;100.00;100463.38;5098858;28;20023;-81
2024/01/28 04:01:47;;;;;;;12.45;5.63;;;;;;;10.23;100.00;100461.06;5099178;28;20036;-80
2024/01/28 04:04:12;;;;;;;15.60;7.28;;;;;;;10.21;100.00;100444.28;5081856;28;20031;-80
2024/01/28 04:06:44;;;;;;;18.38;6.40;;;;;;;10.17;100.00;100432.22;5099893;28;20027;-80
2024/01/28 04:09:10;;;;;;;17.52;5.82;;;;;;;10.16;100.00;100438.59;5082274;28;20024;-80
2024/01/28 04:11:36;;;;;;;12.85;5.00;;;;;;;10.20;100.00;100426.50;5082137;28;20040;-80
2024/01/28 04:14:02;;;;;;;15.32;5.88;;;;;;;10.22;100.00;100421.78;5081947;28;20023;-80
2024/01/28 04:16:27;;;;;;;16.40;6.78;;;;;;;10.22;100.00;100422.59;5115444;28;20028;-80
2024/01/28 04:18:54;;;;;;;17.63;6.65;;;;;;;10.20;100.00;100423.81;5098816;28;20034;-81
2024/01/28 04:21:20;;;;;;;15.95;6.40;;;;;;;10.21;100.00;100412.84;5115902;28;20031;-80
2024/01/28 04:23:46;;;;;;;17.52;6.55;;;;;;;10.23;100.00;100410.00;5081804;28;20030;-80
2024/01/28 04:26:12;;;;;;;20.42;7.25;;;;;;;10.24;100.00;100415.19;5081884;28;20039;-80
2024/01/28 04:28:40;;;;;;;22.92;6.22;;;;;;;10.21;100.00;100403.97;5115151;28;20019;-80
2024/01/28 04:31:07;;;;;;;22.00;7.32;;;;;;;10.20;100.00;100402.31;5081587;28;20122;-80
2024/01/28 04:33:32;;;;;;;18.23;7.07;;;;;;;10.19;100.00;100400.63;5081917;28;20032;-80
2024/01/28 04:35:58;;;;;;;16.40;7.20;;;;;;;10.21;100.00;100407.47;5097741;28;20039;-80
2024/01/28 04:38:24;;;;;;;22.85;8.30;;;;;;;10.20;100.00;100413.88;5081711;28;20040;-81
2024/01/28 04:40:49;;;;;;;31.52;7.93;;;;;;;10.18;100.00;100393.59;5114568;28;20035;-80
2024/01/28 04:43:15;;;;;;;17.55;6.40;;;;;;;10.16;100.00;100363.38;5081448;28;20027;-80
2024/01/28 04:45:42;;;;;;;24.23;8.35;;;;;;;10.15;100.00;100386.72;5114669;28;20023;-81
2024/01/28 04:48:07;;;;;;;22.08;6.85;;;;;;;10.12;100.00;100385.25;5081931;28;20043;-80
2024/01/28 04:50:33;;;;;;;20.77;8.35;;;;;;;10.14;100.00;100368.94;5098183;28;20375;-81
2024/01/28 04:52:59;;;;;;;23.80;8.00;;;;;;;10.11;100.00;100367.47;5098216;28;20459;-80
2024/01/28 04:55:24;;;;;;;19.98;7.15;;;;;;;10.08;100.00;100367.81;5097691;28;20027;-80
2024/01/28 04:57:50;;;;;;;22.67;7.13;;;;;;;10.07;100.00;100358.09;5081210;28;20038;-80
2024/01/28 05:00:16;;;;;;;16.30;6.15;;;;;;;10.07;100.00;100354.56;5081178;28;20032;-80
2024/01/28 05:02:42;;;;;;;26.02;7.40;;;;;;;10.03;100.00;100342.50;5097564;28;20485;-80
2024/01/28 05:05:08;;;;;;;27.60;8.23;;;;;;;9.94;100.00;100339.06;5097487;28;20081;-81
2024/01/28 05:07:34;;;;;;;22.58;7.80;;;;;;;9.87;100.00;100327.38;5097566;28;20024;-81
2024/01/28 05:09:59;;;;;;;26.17;7.93;;;;;;;9.84;100.00;100331.28;5114820;28;20151;-80
2024/01/28 05:12:25;;;;;;;21.48;6.43;;;;;;;9.82;100.00;100321.75;5114548;28;20476;-81
2024/01/28 05:14:51;;;;;;;20.90;6.10;;;;;;;9.85;100.00;100308.78;5097798;28;20046;-80
2024/01/28 05:17:17;;;;;;;21.50;7.40;;;;;;;9.84;100.00;100298.22;5081111;28;20039;-81
2024/01/28 05:19:42;;;;;;;18.55;6.82;;;;;;;9.86;100.00;100307.75;5080993;28;20491;-80
2024/01/28 05:22:08;;;;;;;28.20;8.15;;;;;;;9.86;100.00;100323.03;5114508;28;20383;-81
2024/01/28 05:24:34;;;;;;;22.27;6.13;;;;;;;9.86;100.00;100326.53;5114613;28;20024;-80
2024/01/28 05:27:02;;;;;;;24.90;7.03;;;;;;;9.91;100.00;100323.31;5080468;28;20093;-80
2024/01/28 05:29:27;;;;;;;24.85;8.73;;;;;;;9.92;100.00;100316.91;5081090;28;20035;-81
2024/01/28 05:31:53;;;;;;;24.90;8.10;;;;;;;9.94;100.00;100327.50;5080721;28;20062;-80
2024/01/28 05:34:19;;;;;;;22.17;7.80;;;;;;;9.91;100.00;100313.41;5080694;28;20076;-80
2024/01/28 05:36:49;;;;;;;21.13;6.35;;;;;;;9.91;100.00;100305.34;5097055;28;20067;-80
2024/01/28 05:39:16;;;;;;;15.68;6.47;;;;;;;9.89;100.00;100307.38;5080750;28;20487;-81
2024/01/28 05:41:43;;;;;;;22.63;8.02;;;;;;;9.89;100.00;100317.28;5080324;28;20028;-80
2024/01/28 05:44:08;;;;;;;20.98;6.22;;;;;;;9.89;100.00;100319.97;5079258;28;20036;-80
2024/01/28 05:46:34;;;;;;;25.48;7.53;;;;;;;9.91;100.00;100309.91;5080459;28;20027;-81
2024/01/28 05:48:59;;;;;;;23.83;6.97;;;;;;;9.89;100.00;100310.06;5096721;28;20039;-81
2024/01/28 05:51:27;;;;;;;27.75;7.32;;;;;;;9.93;100.00;100320.47;5080171;28;20038;-80
2024/01/28 05:53:54;;;;;;;28.25;8.25;;;;;;;9.92;100.00;100303.50;5080366;28;20038;-80
2024/01/28 05:56:20;;;;;;;24.45;6.85;;;;;;;9.90;100.00;100314.44;5096872;28;20042;-80
2024/01/28 05:58:45;;;;;;;23.63;6.78;;;;;;;9.92;100.00;100316.91;5080151;28;20040;-81
2024/01/28 06:01:12;;;;;;;27.80;7.82;;;;;;;9.93;100.00;100321.28;5113721;28;20038;-81
2024/01/28 06:03:38;;;;;;;30.85;7.53;;;;;;;9.93;100.00;100321.28;5079796;28;20100;-81
2024/01/28 06:06:04;;;;;;;16.67;6.47;;;;;;;9.95;100.00;100308.53;5079761;28;20035;-80
2024/01/28 06:08:29;;;;;;;24.35;7.60;;;;;;;9.96;100.00;100310.19;5079849;28;20027;-80
2024/01/28 06:10:56;;;;;;;24.45;6.88;;;;;;;9.97;100.00;100311.84;5079892;28;20030;-81
2024/01/28 06:13:22;;;;;;;27.77;7.72;;;;;;;9.95;100.00;100315.72;5113192;28;20398;-80
2024/01/28 06:15:48;;;;;;;25.38;6.97;;;;;;;9.96;100.00;100318.25;5113164;28;20490;-80
2024/01/28 06:18:14;;;;;;;23.73;7.00;;;;;;;9.98;100.00;100302.78;5079827;28;20046;-80
2024/01/28 06:20:39;;;;;;;30.23;8.50;;;;;;;9.95;100.00;100295.09;5079571;28;20391;-81
2024/01/28 06:23:05;;;;;;;33.55;7.38;;;;;;;9.96;100.00;100272.59;5113320;28;20020;-80
2024/01/28 06:25:30;;;;;;;31.05;7.07;;;;;;;9.89;100.00;100277.00;5095827;28;20035;-80
2024/01/28 06:27:56;;;;;;;32.45;8.07;;;;;;;9.82;100.00;100259.97;5113272;28;20032;-81
2024/01/28 06:30:22;;;;;;;35.90;8.48;;;;;;;9.71;100.00;100246.97;5079389;28;20034;-80
2024/01/28 06:32:47;;;;;;;17.63;5.78;;;;;;;9.59;100.00;100239.38;5113261;28;20490;-80
2024/01/28 06:35:13;;;;;;;38.65;8.77;;;;;;;9.52;100.00;100208.91;5112830;28;20024;-81
2024/01/28 06:37:39;;;;;;;34.80;10.27;;;;;;;9.53;100.00;100233.91;5079677;28;20463;-80
2024/01/28 06:40:06;;;;;;;33.65;8.68;;;;;;;9.44;100.00;100225.91;5095580;28;20495;-81
2024/01/28 06:42:32;;;;;;;29.85;9.13;;;;;;;9.31;100.00;100198.88;5095750;28;20027;-80
2024/01/28 06:44:59;;;;;;;34.33;10.80;;;;;;;9.21;100.00;100183.03;5096042;28;20130;-81
2024/01/28 06:47:25;;;;;;;35.75;9.77;;;;;;;9.34;100.00;100186.94;5096313;28;20034;-81
2024/01/28 06:49:51;;;;;;;25.65;8.00;;;;;;;9.38;100.00;100173.00;5112976;28;20035;-80
2024/01/28 06:52:17;;;;;;;19.88;5.80;;;;;;;9.42;100.00;100171.63;5112541;28;20031;-80
2024/01/28 06:54:42;;;;;;;21.98;6.57;;;;;;;9.44;100.00;100155.31;5079102;28;20031;-80
2024/01/28 06:57:08;;;;;;;28.60;7.93;;;;;;;9.42;100.00;100170.75;5096108;28;20057;-80
2024/01/28 06:59:34;;;;;;;30.58;8.43;;;;;;;9.41;100.00;100161.06;5079585;28;20367;-80
2024/01/28 07:02:00;;;;;;;26.25;9.20;;;;;;;9.40;100.00;100152.19;5079105;28;20071;-81
2024/01/28 07:04:26;;;;;;;32.50;8.07;;;;;;;9.34;100.00;100154.75;5095456;28;20479;-81
2024/01/28 07:06:51;;;;;;;23.63;7.32;;;;;;;9.35;100.00;100156.44;5112533;28;20436;-80
2024/01/28 07:09:17;;;;;;;24.13;7.30;;;;;;;9.35;100.00;100148.38;5095782;28;20042;-80
2024/01/28 07:11:44;;;;;;;26.63;8.25;;;;;;;9.38;100.00;100156.06;5078840;28;20415;-80
2024/01/28 07:14:10;;;;;;;28.70;9.10;;;;;;;9.42;100.00;100151.97;5112672;28;20073;-80
2024/01/28 07:16:36;;;;;;;22.45;6.38;;;;;;;9.51;100.00;100148.22;5095610;28;20163;-80
2024/01/28 07:19:02;;;;;;;25.58;8.50;;;;;;;9.52;100.00;100157.91;5078924;28;20158;-80
2024/01/28 07:21:27;;;;;;;21.67;5.85;;;;;;;9.50;100.00;100172.53;5112740;28;20038;-81
2024/01/28 07:23:53;;;;;;;21.40;7.80;;;;;;;9.45;100.00;100160.50;5078833;28;20035;-80
2024/01/28 07:26:19;;;;;;;29.45;7.78;;;;;;;9.34;100.00;100150.25;5078875;28;20076;-80
2024/01/28 07:28:44;;;;;;;22.20;8.60;;;;;;;9.36;100.00;100166.13;5079590;28;20379;-80
2024/01/28 07:31:10;;;;;;;21.30;7.07;;;;;;;9.44;100.00;100166.06;5095598;28;20028;-80
2024/01/28 07:33:36;;;;;;;23.20;9.15;;;;;;;9.46;100.00;100158.66;5095677;28;20031;-80
2024/01/28 07:36:01;;;;;;;21.38;7.20;;;;;;;9.47;100.00;100149.59;5079015;28;20027;-80
2024/01/28 07:38:27;;;;;;;20.17;6.65;;;;;;;9.33;100.00;100121.72;5078721;28;20458;-81
2024/01/28 07:40:54;;;;;;;20.67;8.30;;;;;;;9.24;100.00;100138.94;5095352;28;20559;-80
2024/01/28 07:43:19;;;;;;;29.25;8.07;;;;;;;9.18;100.00;100145.84;5112133;28;20051;-81
2024/01/28 07:45:45;;;;;;;20.65;6.80;;;;;;;9.09;100.00;100138.06;5078861;28;20027;-80
2024/01/28 07:48:11;;;;;;;23.52;8.52;;;;;;;9.03;100.00;100131.56;5112350;28;20036;-80
2024/01/28 07:50:36;;;;;;;22.02;6.40;;;;;;;9.01;100.00;100142.47;5078687;28;20137;-80
2024/01/28 07:53:02;;;;;;;19.95;8.60;;;;;;;8.97;100.00;100133.13;5112564;28;20028;-80
2024/01/28 07:55:27;;;;;;;25.55;10.40;;;;;;;9.08;100.00;100149.81;5112146;28;20039;-80
2024/01/28 07:57:54;;;;;;;22.52;8.48;;;;;;;9.08;100.00;100150.63;5095260;28;20035;-80
2024/01/28 08:00:21;;;;;;;25.65;8.25;;;;;;;9.11;100.00;100150.28;5095160;28;20035;-80
2024/01/28 08:02:46;;;;;;;29.85;9.85;;;;;;;9.08;100.00;100129.19;5112079;28;20020;-80
2024/01/28 08:05:12;;;;;;;20.77;7.57;;;;;;;9.10;100.00;100137.03;5111977;28;20034;-79
2024/01/28 08:07:38;;;;;;;28.27;8.52;;;;;;;9.03;100.00;100132.41;5082060;28;20027;-80
2024/01/28 08:10:03;;;;;;;28.42;9.32;;;;;;;8.89;100.00;100117.13;5082113;28;20074;-80
2024/01/28 08:12:29;;;;;;;20.45;7.82;;;;;;;8.89;100.00;100122.47;5115504;28;20110;-80
2024/01/28 08:14:55;;;;;;;24.52;7.53;;;;;;;8.95;100.00;100113.72;5098948;28;20071;-80
2024/01/28 08:17:21;;;;;;;22.85;9.13;;;;;;;8.90;100.00;100096.50;5082011;28;20080;-81
2024/01/28 08:19:46;;;;;;;23.95;8.75;;;;;;;8.79;100.00;100109.31;5098744;28;20028;-80
2024/01/28 08:22:12;;;;;;;18.33;7.97;;;;;;;8.85;100.00;100106.94;5098345;28;20085;-81
2024/01/28 08:24:38;;;;;;;22.00;8.77;;;;;;;8.90;100.00;100100.00;5081869;28;20059;-81
2024/01/28 08:27:04;;;;;;;23.17;7.40;;;;;;;8.90;100.00;100102.69;5084349;28;20459;-81
2024/01/28 08:29:30;;;;;;;25.95;7.10;;;;;;;8.84;100.00;100095.38;5115230;28;20495;-80
2024/01/28 08:31:57;;;;;;;22.55;7.80;;;;;;;8.80;100.00;100086.03;5081840;28;20092;-80
2024/01/28 08:34:23;;;;;;;20.85;7.68;;;;;;;8.90;100.00;100094.66;5115165;28;20028;-80
2024/01/28 08:36:50;;;;;;;25.15;7.90;;;;;;;9.05;100.00;100088.47;5081041;28;20486;-80
2024/01/28 08:39:16;;;;;;;26.67;7.90;;;;;;;9.04;100.00;100084.97;5114928;28;20046;-80
2024/01/28 08:41:41;;;;;;;25.33;8.13;;;;;;;9.07;100.00;100078.41;5098326;28;20039;-80
2024/01/28 08:44:07;;;;;;;27.80;8.27;;;;;;;9.03;100.00;100062.69;5081039;28;20028;-80
2024/01/28 08:46:33;;;;;;;26.73;7.28;;;;;;;9.14;100.00;100079.34;5080517;28;20093;-81
2024/01/28 08:48:58;;;;;;;21.17;8.30;;;;;;;9.20;100.00;100078.59;5097838;28;20043;-80
2024/01/28 08:51:24;;;;;;;26.40;7.90;;;;;;;9.18;100.00;100077.94;5081017;28;20024;-80
2024/01/28 08:53:49;;;;;;;22.40;8.35;;;;;;;9.18;100.00;100086.84;5097735;28;20092;-80
2024/01/28 08:56:15;;;;;;;23.85;8.80;;;;;;;9.28;100.00;100072.31;5081276;28;20450;-80
2024/01/28 08:58:41;;;;;;;24.92;8.30;;;;;;;9.32;100.00;100077.16;5114839;28;20032;-80
2024/01/28 09:01:08;;;;;;;32.92;9.55;;;;;;;9.33;100.00;100088.69;5097805;28;20051;-80
2024/01/28 09:03:33;;;;;;;22.08;8.63;;;;;;;9.50;100.00;100081.28;5097687;28;20173;-80
2024/01/28 09:06:02;;;;;;;24.35;9.00;;;;;;;9.55;100.00;100079.75;5097853;28;20464;-80
2024/01/28 09:08:30;;;;;;;20.80;8.30;;;;;;;9.60;100.00;100063.88;5080583;28;20070;-80
2024/01/28 09:10:56;;;;;;;22.10;7.45;;;;;;;9.66;100.00;100067.69;5080931;28;20070;-80
2024/01/28 09:13:24;;;;;;;25.33;9.45;;;;;;;9.66;100.00;100040.84;5097822;28;20126;-80
2024/01/28 09:15:50;;;;;;;21.17;7.80;;;;;;;9.63;100.00;100036.69;5114326;28;20115;-80
2024/01/28 09:18:16;;;;;;;30.40;9.63;;;;;;;9.65;100.00;100031.13;5097120;28;20080;-80
2024/01/28 09:20:42;;;;;;;27.13;8.50;;;;;;;9.66;100.00;100022.91;5114224;28;20031;-81
2024/01/28 09:23:08;;;;;;;29.58;9.40;;;;;;;9.63;100.00;100017.06;5080313;28;20431;-81
2024/01/28 09:25:34;;;;;;;27.67;9.32;;;;;;;9.71;100.00;100016.13;5097359;28;20028;-80
2024/01/28 09:28:00;;;;;;;33.03;10.77;;;;;;;9.76;100.00;100002.97;5115486;28;20104;-80
2024/01/28 09:30:25;;;;;;;25.27;9.55;;;;;;;9.78;100.00;99991.00;5080657;28;20078;-80
2024/01/28 09:32:51;;;;;;;29.50;9.90;;;;;;;9.85;100.00;99988.41;5096841;28;20055;-80
2024/01/28 09:35:17;;;;;;;25.02;8.82;;;;;;;10.06;100.00;99977.69;5080533;28;20368;-81
2024/01/28 09:37:42;;;;;;;30.75;7.53;;;;;;;10.35;100.00;100002.78;5080491;28;20035;-80
2024/01/28 09:40:11;;;;;;;24.63;9.95;;;;;;;10.42;100.00;99976.78;5096888;28;20027;-80
2024/01/28 09:42:59;;;;;;;28.67;8.18;;;;;;;10.30;100.00;99983.72;5096481;28;20122;-78
2024/01/28 09:45:26;;;;;;;25.17;9.13;;;;;;;10.38;100.00;99988.13;5097476;28;20126;-79
2024/01/28 09:47:52;;;;;;;29.23;9.23;;;;;;;10.50;100.00;99971.28;5080609;28;20036;-78
2024/01/28 09:50:18;;;;;;;26.88;8.75;;;;;;;10.61;100.00;99977.13;5097221;28;20155;-78
2024/01/28 09:52:45;;;;;;;25.10;7.22;;;;;;;10.79;100.00;99999.81;5097111;28;20510;-79
2024/01/28 09:55:11;;;;;;;23.38;6.47;;;;;;;10.93;100.00;99990.00;5097522;28;20027;-78
2024/01/28 09:57:38;;;;;;;31.70;9.32;;;;;;;10.94;100.00;99991.66;5080232;28;20085;-79
2024/01/28 10:00:06;;;;;;;26.00;7.25;;;;;;;10.94;100.00;99990.84;5079868;28;20395;-79
2024/01/28 10:02:32;;;;;;;25.58;9.52;;;;;;;10.89;100.00;99977.97;5097155;28;20490;-79
2024/01/28 10:04:58;;;;;;;28.85;9.25;;;;;;;10.88;100.00;99976.31;5079814;28;20070;-78
2024/01/28 10:07:23;;;;;;;26.35;7.70;;;;;;;10.88;100.00;99967.44;5080139;28;20051;-78
2024/01/28 10:09:50;;;;;;;23.58;6.72;;;;;;;10.91;100.00;99948.19;5096981;28;20035;-78
2024/01/28 10:12:15;;;;;;;24.67;7.20;;;;;;;10.94;100.00;99988.97;5079252;28;20063;-79
2024/01/28 10:14:50;;;;;;;18.38;6.45;;;;;;;11.04;100.00;99963.59;5096840;28;20539;-79
2024/01/28 10:17:15;;;;;;;21.10;6.90;;;;;;;11.12;100.00;99987.66;5096336;28;20042;-79
2024/01/28 10:19:41;;;;;;;25.15;7.80;;;;;;;11.20;100.00;99963.25;5079532;28;20394;-79
2024/01/28 10:22:07;;;;;;;26.02;7.70;;;;;;;11.28;100.00;99946.13;5079809;28;20032;-78
2024/01/28 10:24:32;;;;;;;27.90;8.80;;;;;;;11.41;100.00;99968.53;5079170;28;20034;-78
2024/01/28 10:27:00;;;;;;;21.55;5.93;;;;;;;11.42;100.00;99956.72;5113397;28;20050;-78
2024/01/28 10:29:27;;;;;;;16.05;6.05;;;;;;;11.39;100.00;99959.81;5079233;28;20035;-78
2024/01/28 10:31:53;;;;;;;19.90;6.50;;;;;;;11.26;100.00;99946.31;5113088;28;20030;-78
2024/01/28 10:34:19;;;;;;;29.10;9.20;;;;;;;11.17;100.00;99936.75;5079630;28;20031;-78
2024/01/28 10:36:47;;;;;;;20.83;7.10;;;;;;;11.19;100.00;99958.88;5079562;28;20042;-78
2024/01/28 10:39:14;;;;;;;27.42;8.88;;;;;;;11.31;100.00;99957.31;5114327;28;20023;-78
2024/01/28 10:41:44;;;;;;;22.55;7.88;;;;;;;11.50;100.00;99960.28;5079455;28;20144;-79
2024/01/28 10:44:11;;;;;;;29.98;10.13;;;;;;;11.62;100.00;99961.38;5079741;28;20035;-78
2024/01/28 10:46:39;;;;;;;22.17;9.48;;;;;;;11.78;100.00;99957.47;5079031;28;20027;-79
2024/01/28 10:49:06;;;;;;;30.50;8.38;;;;;;;11.91;100.00;99954.00;5112770;28;20023;-78
2024/01/28 10:51:37;;;;;;;19.02;7.47;;;;;;;12.10;100.00;99958.59;5079234;28;20131;-79
2024/01/28 10:54:09;;;;;;;27.92;9.07;;;;;;;12.23;100.00;99947.00;5095717;28;20106;-79
2024/01/28 10:56:39;;;;;;;21.67;7.60;;;;;;;12.40;100.00;99959.03;5080179;28;20468;-79
2024/01/28 10:59:04;;;;;;;26.50;8.07;;;;;;;12.58;100.00;99969.19;5095756;28;20102;-79
2024/01/28 11:01:31;;;;;;;24.10;7.30;;;;;;;12.64;100.00;99954.88;5079233;28;20118;-79
2024/01/28 11:03:57;;;;;;;25.95;7.80;;;;;;;12.65;100.00;99950.28;5095538;28;20024;-79
2024/01/28 11:06:27;;;;;;;23.83;7.95;;;;;;;12.60;100.00;99926.69;5079217;28;20028;-79
2024/01/28 11:08:55;;;;;;;25.70;8.70;;;;;;;12.43;100.00;99947.81;5094721;28;20447;-79